Time;durP1;ratioP1;P1;durP2;ratioP2;P2;SDS_P1;SDS_P2;PMS_P1;PMS_P2;Temp;Humidity;BMP_temperature;BMP_pressure;BME280_temperature;BME280_humidity;BME280_pressure;Samples;Min_cycle;Max_cycle;Signal;HPM_P1;HPM_P2
2023/08/28 00:01:41;;;;;;;5.27;2.87;;;;;;;;;;5093555;28;20174;-72
2023/08/28 00:04:45;;;;;;;3.57;2.67;;;;;;;;;;5093512;28;20175;-72
2023/08/28 00:07:49;;;;;;;4.70;2.63;;;;;;;;;;5093245;28;20175;-72
2023/08/28 00:10:53;;;;;;;5.20;2.70;;;;;;;;;;5093509;28;20551;-72
2023/08/28 00:13:57;;;;;;;3.47;2.60;;;;;;;;;;5080979;28;20194;-72
2023/08/28 00:17:04;;;;;;;3.27;2.50;;;;;;;;;;5093476;28;20530;-73
2023/08/28 00:20:09;;;;;;;4.80;2.70;;;;;;;;;;5093438;28;20179;-72
2023/08/28 00:23:13;;;;;;;4.63;2.67;;;;;;;;;;5093341;28;20211;-72
2023/08/28 00:26:19;;;;;;;4.33;2.93;;;;;;;;;;5069532;28;20171;-72
2023/08/28 00:29:22;;;;;;;3.50;2.70;;;;;;;;;;5069718;28;20175;-72
2023/08/28 00:32:27;;;;;;;3.67;3.07;;;;;;;;;;5081146;28;20207;-72
2023/08/28 00:35:31;;;;;;;4.07;2.83;;;;;;;;;;5080835;28;20183;-72
2023/08/28 00:38:34;;;;;;;4.37;3.40;;;;;;;;;;5081157;28;20175;-72
2023/08/28 00:41:39;;;;;;;7.33;3.30;;;;;;;;;;5081128;28;20170;-72
2023/08/28 00:44:42;;;;;;;4.27;3.30;;;;;;;;;;5080939;28;20171;-72
2023/08/28 00:47:47;;;;;;;4.60;3.10;;;;;;;;;;5057873;28;20514;-72
2023/08/28 00:50:52;;;;;;;5.43;3.43;;;;;;;;;;5069333;28;20203;-73
2023/08/28 00:53:57;;;;;;;5.83;3.30;;;;;;;;;;5080659;28;20645;-73
2023/08/28 00:57:02;;;;;;;4.30;3.30;;;;;;;;;;5080577;28;20664;-72
2023/08/28 01:00:10;;;;;;;5.07;3.60;;;;;;;;;;5080671;28;20656;-73
2023/08/28 01:03:16;;;;;;;6.63;3.87;;;;;;;;;;5080660;28;20214;-72
2023/08/28 01:06:28;;;;;;;4.43;3.40;;;;;;;;;;5080817;28;20179;-73
2023/08/28 01:09:51;;;;;;;3.57;3.23;;;;;;;;;;5080558;28;20179;-72
2023/08/28 01:13:16;;;;;;;3.80;3.40;;;;;;;;;;5068942;28;20219;-72
2023/08/28 01:16:24;;;;;;;3.67;3.37;;;;;;;;;;5093143;28;20179;-72
2023/08/28 01:19:32;;;;;;;5.97;3.40;;;;;;;;;;5082712;28;20175;-72
2023/08/28 01:23:06;;;;;;;4.67;3.37;;;;;;;;;;5083979;28;20207;-72
2023/08/28 01:26:10;;;;;;;4.87;3.43;;;;;;;;;;5068094;28;20195;-72
2023/08/28 01:29:14;;;;;;;4.77;3.57;;;;;;;;;;5083877;28;20175;-72
2023/08/28 01:32:19;;;;;;;4.03;3.63;;;;;;;;;;5083619;28;20226;-73
2023/08/28 01:35:31;;;;;;;3.60;3.30;;;;;;;;;;5084252;28;20171;-72
2023/08/28 01:38:44;;;;;;;4.33;3.60;;;;;;;;;;5083806;28;20170;-72
2023/08/28 01:41:52;;;;;;;4.00;2.90;;;;;;;;;;5083688;28;20210;-72
2023/08/28 01:44:56;;;;;;;3.67;3.20;;;;;;;;;;5083735;28;20179;-72
2023/08/28 01:48:01;;;;;;;4.17;3.47;;;;;;;;;;5083798;28;20182;-72
2023/08/28 01:51:05;;;;;;;5.20;3.37;;;;;;;;;;5083520;28;20677;-72
2023/08/28 01:54:10;;;;;;;4.67;3.40;;;;;;;;;;5095959;28;20179;-72
2023/08/28 01:57:14;;;;;;;4.03;3.37;;;;;;;;;;5071846;28;20677;-72
2023/08/28 02:00:21;;;;;;;3.80;3.37;;;;;;;;;;5095816;28;20242;-72
2023/08/28 02:03:29;;;;;;;3.53;3.10;;;;;;;;;;5095761;28;20211;-72
2023/08/28 02:06:33;;;;;;;3.43;3.00;;;;;;;;;;5083278;28;20202;-71
2023/08/28 02:09:38;;;;;;;5.73;3.30;;;;;;;;;;5083261;28;20637;-72
2023/08/28 02:12:42;;;;;;;4.57;3.07;;;;;;;;;;5060330;28;20570;-71
2023/08/28 02:15:46;;;;;;;7.67;3.33;;;;;;;;;;5083243;28;20187;-72
2023/08/28 02:18:50;;;;;;;3.63;2.93;;;;;;;;;;5095666;28;20175;-72
2023/08/28 02:21:54;;;;;;;3.20;2.90;;;;;;;;;;5083180;28;20206;-72
2023/08/28 02:24:58;;;;;;;7.03;3.07;;;;;;;;;;5082883;28;20174;-72
2023/08/28 02:28:03;;;;;;;3.10;2.63;;;;;;;;;;5095326;28;20179;-72
2023/08/28 02:31:07;;;;;;;5.70;3.30;;;;;;;;;;5082361;28;20207;-72
2023/08/28 02:34:11;;;;;;;6.93;2.70;;;;;;;;;;5082843;28;20179;-72
2023/08/28 02:37:15;;;;;;;3.17;2.87;;;;;;;;;;5082771;28;20174;-71
2023/08/28 02:40:19;;;;;;;4.70;3.07;;;;;;;;;;5082785;28;20511;-72
2023/08/28 02:43:23;;;;;;;3.77;3.00;;;;;;;;;;5082466;28;20206;-72
2023/08/28 02:46:28;;;;;;;4.83;2.87;;;;;;;;;;5082372;28;20174;-71
2023/08/28 02:49:32;;;;;;;4.57;3.00;;;;;;;;;;5082702;28;20648;-71
2023/08/28 02:52:36;;;;;;;3.93;2.97;;;;;;;;;;5082280;28;20230;-72
2023/08/28 02:55:41;;;;;;;4.50;3.10;;;;;;;;;;5082319;28;20183;-72
2023/08/28 02:58:46;;;;;;;3.53;2.80;;;;;;;;;;5094589;28;20210;-71
2023/08/28 03:01:50;;;;;;;4.27;3.13;;;;;;;;;;5082297;28;20206;-71
2023/08/28 03:04:55;;;;;;;4.77;3.17;;;;;;;;;;5070980;28;20178;-72
2023/08/28 03:07:59;;;;;;;7.43;3.67;;;;;;;;;;5082249;28;20183;-72
2023/08/28 03:11:02;;;;;;;4.50;3.37;;;;;;;;;;5070588;28;20658;-72
2023/08/28 03:14:07;;;;;;;5.03;3.53;;;;;;;;;;5094740;28;20191;-72
2023/08/28 03:17:11;;;;;;;6.07;3.70;;;;;;;;;;5094671;28;20179;-72
2023/08/28 03:20:15;;;;;;;4.77;3.43;;;;;;;;;;5094739;28;20638;-71
2023/08/28 03:23:19;;;;;;;4.30;3.30;;;;;;;;;;5095038;28;20203;-72
2023/08/28 03:26:25;;;;;;;3.53;3.23;;;;;;;;;;5082566;28;20179;-71
2023/08/28 03:29:29;;;;;;;7.17;3.30;;;;;;;;;;5082791;28;20175;-71
2023/08/28 03:32:34;;;;;;;5.60;3.43;;;;;;;;;;5082430;28;20226;-72
2023/08/28 03:35:38;;;;;;;4.47;3.50;;;;;;;;;;5070754;28;20194;-72
2023/08/28 03:38:42;;;;;;;5.33;3.30;;;;;;;;;;5070821;28;20179;-72
2023/08/28 03:41:46;;;;;;;4.13;3.73;;;;;;;;;;5069948;28;20210;-72
2023/08/28 03:44:50;;;;;;;5.50;3.73;;;;;;;;;;5082364;28;20171;-72
2023/08/28 03:47:55;;;;;;;7.33;3.90;;;;;;;;;;5082157;28;20174;-71
2023/08/28 03:50:59;;;;;;;4.70;3.87;;;;;;;;;;5082265;28;20175;-72
2023/08/28 03:54:11;;;;;;;4.77;3.80;;;;;;;;;;5070398;28;20170;-71
2023/08/28 03:57:15;;;;;;;5.90;4.13;;;;;;;;;;5081799;28;20546;-72
2023/08/28 04:00:19;;;;;;;4.63;4.00;;;;;;;;;;5081968;28;20519;-72
2023/08/28 04:03:23;;;;;;;5.53;4.63;;;;;;;;;;5094076;28;20210;-71
2023/08/28 04:06:28;;;;;;;6.80;3.87;;;;;;;;;;5081922;28;20179;-71
2023/08/28 04:09:32;;;;;;;4.90;3.67;;;;;;;;;;5081782;28;20179;-71
2023/08/28 04:12:36;;;;;;;4.70;4.00;;;;;;;;;;5094008;28;20218;-71
2023/08/28 04:15:40;;;;;;;4.87;4.30;;;;;;;;;;5081743;28;20178;-72
2023/08/28 04:18:44;;;;;;;6.90;4.47;;;;;;;;;;5081548;28;20195;-72
2023/08/28 04:21:48;;;;;;;4.27;3.77;;;;;;;;;;5081478;28;20210;-72
2023/08/28 04:24:53;;;;;;;5.87;4.40;;;;;;;;;;5081413;28;20519;-72
2023/08/28 04:27:58;;;;;;;5.13;4.43;;;;;;;;;;5081356;28;20183;-72
2023/08/28 04:31:03;;;;;;;5.63;4.30;;;;;;;;;;5081464;28;20636;-72
2023/08/28 04:34:07;;;;;;;7.20;5.20;;;;;;;;;;5093679;28;20170;-72
2023/08/28 04:37:14;;;;;;;5.27;4.33;;;;;;;;;;5081075;28;20221;-72
2023/08/28 04:40:19;;;;;;;5.93;4.60;;;;;;;;;;5081036;28;20179;-72
2023/08/28 04:43:23;;;;;;;6.87;4.37;;;;;;;;;;5081244;28;20203;-72
2023/08/28 04:46:28;;;;;;;5.30;4.63;;;;;;;;;;5081217;28;20175;-72
2023/08/28 04:49:32;;;;;;;6.53;4.60;;;;;;;;;;5093440;28;20183;-72
2023/08/28 04:52:37;;;;;;;6.00;4.67;;;;;;;;;;5081641;28;20585;-72
2023/08/28 04:55:41;;;;;;;4.80;4.20;;;;;;;;;;5084795;28;20179;-72
2023/08/28 04:58:45;;;;;;;5.63;4.40;;;;;;;;;;5083745;28;20210;-72
2023/08/28 05:01:49;;;;;;;7.00;4.63;;;;;;;;;;5067933;28;20226;-72
2023/08/28 05:04:53;;;;;;;6.03;4.60;;;;;;;;;;5084163;28;20190;-71
2023/08/28 05:07:58;;;;;;;4.70;4.30;;;;;;;;;;5084115;28;20522;-71
2023/08/28 05:11:04;;;;;;;7.07;5.10;;;;;;;;;;5096650;28;20179;-72
2023/08/28 05:14:08;;;;;;;6.17;4.73;;;;;;;;;;5084185;28;20179;-72
2023/08/28 05:17:13;;;;;;;5.13;4.47;;;;;;;;;;5072372;28;20179;-72
2023/08/28 05:20:17;;;;;;;5.20;4.70;;;;;;;;;;5084006;28;20183;-72
2023/08/28 05:23:25;;;;;;;5.53;4.87;;;;;;;;;;5083725;28;20550;-72
2023/08/28 05:26:29;;;;;;;6.63;4.97;;;;;;;;;;5089613;28;20198;-72
2023/08/28 05:29:33;;;;;;;6.83;5.03;;;;;;;;;;5064075;28;20198;-72
2023/08/28 05:32:37;;;;;;;6.63;5.50;;;;;;;;;;5082659;28;20574;-72
2023/08/28 05:35:42;;;;;;;8.73;4.93;;;;;;;;;;5071880;28;20190;-71
2023/08/28 05:38:46;;;;;;;6.77;5.10;;;;;;;;;;5071991;28;20183;-71
2023/08/28 05:41:50;;;;;;;7.23;5.63;;;;;;;;;;5083391;28;20210;-72
2023/08/28 05:44:54;;;;;;;5.10;4.30;;;;;;;;;;5095688;28;20194;-72
2023/08/28 05:47:58;;;;;;;5.33;4.47;;;;;;;;;;5083398;28;20183;-71
2023/08/28 05:51:03;;;;;;;5.03;4.53;;;;;;;;;;5083147;28;20175;-72
2023/08/28 05:54:07;;;;;;;5.10;4.47;;;;;;;;;;5095685;28;20182;-72
2023/08/28 05:57:10;;;;;;;6.27;4.63;;;;;;;;;;5082943;28;20198;-72
2023/08/28 06:00:15;;;;;;;4.97;4.30;;;;;;;;;;5071524;28;20191;-72
2023/08/28 06:03:20;;;;;;;7.13;4.50;;;;;;;;;;5071417;28;20203;-72
2023/08/28 06:06:24;;;;;;;4.40;3.97;;;;;;;;;;5082730;28;20190;-72
2023/08/28 06:09:29;;;;;;;5.47;4.33;;;;;;;;;;5071659;28;20182;-72
2023/08/28 06:12:34;;;;;;;4.20;3.67;;;;;;;;;;5064908;28;20231;-72
2023/08/28 06:15:38;;;;;;;6.03;4.00;;;;;;;;;;5083895;28;20661;-72
2023/08/28 06:18:43;;;;;;;7.20;4.43;;;;;;;;;;5074913;28;20203;-72
2023/08/28 06:21:48;;;;;;;5.23;4.30;;;;;;;;;;5078113;28;20226;-72
2023/08/28 06:24:52;;;;;;;7.10;4.50;;;;;;;;;;5082576;28;20649;-72
2023/08/28 06:27:58;;;;;;;5.77;4.80;;;;;;;;;;5082604;28;20665;-72
2023/08/28 06:31:03;;;;;;;8.13;5.23;;;;;;;;;;5070925;28;20174;-72
2023/08/28 06:34:07;;;;;;;7.50;4.97;;;;;;;;;;5094772;28;20203;-72
2023/08/28 06:37:11;;;;;;;7.40;5.27;;;;;;;;;;5082597;28;20175;-72
2023/08/28 06:40:15;;;;;;;6.73;5.37;;;;;;;;;;5070853;28;20174;-72
2023/08/28 06:43:19;;;;;;;8.03;5.43;;;;;;;;;;5082019;28;20203;-72
2023/08/28 06:46:23;;;;;;;5.40;4.90;;;;;;;;;;5094801;28;20194;-72
2023/08/28 06:49:27;;;;;;;7.23;5.37;;;;;;;;;;5081946;28;20190;-72
2023/08/28 06:52:31;;;;;;;5.17;4.63;;;;;;;;;;5094434;28;20223;-72
2023/08/28 06:55:36;;;;;;;7.57;5.07;;;;;;;;;;5094593;28;20665;-72
2023/08/28 06:58:40;;;;;;;6.87;5.50;;;;;;;;;;5081675;28;20194;-72
2023/08/28 07:01:44;;;;;;;6.10;5.50;;;;;;;;;;5094317;28;20175;-72
2023/08/28 07:04:49;;;;;;;5.80;5.20;;;;;;;;;;5093036;28;20191;-72
2023/08/28 07:07:53;;;;;;;7.90;5.37;;;;;;;;;;5086924;28;20199;-72
2023/08/28 07:10:57;;;;;;;5.73;5.13;;;;;;;;;;5075299;28;20203;-72
2023/08/28 07:14:02;;;;;;;7.23;4.73;;;;;;;;;;5060378;28;20211;-72
2023/08/28 07:17:06;;;;;;;7.27;5.37;;;;;;;;;;5072180;28;20184;-72
2023/08/28 07:20:11;;;;;;;5.73;4.50;;;;;;;;;;5072861;28;20172;-72
2023/08/28 07:23:15;;;;;;;5.10;4.60;;;;;;;;;;5072526;28;20215;-72
2023/08/28 07:26:19;;;;;;;5.70;5.00;;;;;;;;;;5060064;28;20171;-72
2023/08/28 07:29:23;;;;;;;5.40;4.57;;;;;;;;;;5090423;28;20202;-72
2023/08/28 07:32:29;;;;;;;5.57;5.00;;;;;;;;;;5080494;28;20218;-72
2023/08/28 07:35:36;;;;;;;4.53;4.13;;;;;;;;;;5072269;28;20191;-72
2023/08/28 07:38:43;;;;;;;5.50;4.80;;;;;;;;;;5072389;28;20172;-71
2023/08/28 07:41:47;;;;;;;6.27;5.00;;;;;;;;;;5059896;28;20215;-71
2023/08/28 07:44:52;;;;;;;6.40;4.67;;;;;;;;;;5059685;28;20171;-72
2023/08/28 07:47:58;;;;;;;5.27;4.73;;;;;;;;;;5059790;28;20176;-72
2023/08/28 07:51:03;;;;;;;8.77;5.30;;;;;;;;;;5068441;28;20500;-72
2023/08/28 07:54:08;;;;;;;5.17;4.53;;;;;;;;;;5068154;28;20227;-72
2023/08/28 07:57:12;;;;;;;5.27;4.03;;;;;;;;;;5062904;28;20674;-72
2023/08/28 08:00:20;;;;;;;5.73;4.20;;;;;;;;;;5072190;28;20176;-72
2023/08/28 08:03:24;;;;;;;7.10;3.90;;;;;;;;;;5047729;28;20681;-72
2023/08/28 08:06:28;;;;;;;5.47;4.23;;;;;;;;;;5058699;28;20195;-72
2023/08/28 08:09:33;;;;;;;5.57;5.03;;;;;;;;;;5060873;28;20535;-72
2023/08/28 08:12:38;;;;;;;4.27;3.73;;;;;;;;;;5049130;28;20219;-72
2023/08/28 08:15:42;;;;;;;4.90;3.47;;;;;;;;;;5072954;28;20180;-72
2023/08/28 08:18:46;;;;;;;4.00;3.37;;;;;;;;;;5049665;28;20187;-72
2023/08/28 08:21:50;;;;;;;2.40;2.20;;;;;;;;;;5058813;28;20219;-72
2023/08/28 08:24:55;;;;;;;5.13;2.60;;;;;;;;;;5073227;28;20176;-71
2023/08/28 08:27:59;;;;;;;3.37;2.40;;;;;;;;;;5062285;28;20199;-72
2023/08/28 08:31:03;;;;;;;3.07;2.20;;;;;;;;;;5092296;28;20669;-72
2023/08/28 08:34:07;;;;;;;2.53;2.00;;;;;;;;;;5096835;28;20218;-72
2023/08/28 08:37:12;;;;;;;2.53;2.33;;;;;;;;;;5097127;28;20170;-72
2023/08/28 08:40:18;;;;;;;3.03;2.40;;;;;;;;;;5097026;28;20653;-72
2023/08/28 08:43:23;;;;;;;3.27;2.67;;;;;;;;;;5097171;28;20202;-72
2023/08/28 08:46:27;;;;;;;2.60;2.10;;;;;;;;;;5096867;28;20178;-72
2023/08/28 08:49:32;;;;;;;2.30;1.90;;;;;;;;;;5084456;28;20183;-72
2023/08/28 08:52:38;;;;;;;3.27;2.27;;;;;;;;;;5096799;28;20554;-72
2023/08/28 08:55:46;;;;;;;2.80;2.13;;;;;;;;;;5096797;28;20179;-72
2023/08/28 08:58:51;;;;;;;2.00;1.57;;;;;;;;;;5096737;28;20179;-72
2023/08/28 09:01:55;;;;;;;2.73;1.67;;;;;;;;;;5096585;28;20210;-72
2023/08/28 09:04:59;;;;;;;2.43;2.00;;;;;;;;;;5096646;28;20633;-72
2023/08/28 09:08:05;;;;;;;3.80;2.30;;;;;;;;;;5072670;28;20175;-72
2023/08/28 09:11:09;;;;;;;2.80;2.40;;;;;;;;;;5096380;28;20171;-72
2023/08/28 09:14:14;;;;;;;2.97;2.23;;;;;;;;;;5096480;28;20206;-71
2023/08/28 09:17:18;;;;;;;3.00;1.80;;;;;;;;;;5084162;28;20183;-72
2023/08/28 09:20:23;;;;;;;3.87;1.97;;;;;;;;;;5096252;28;20179;-71
2023/08/28 09:23:31;;;;;;;2.37;1.93;;;;;;;;;;5083946;28;20210;-71
2023/08/28 09:26:38;;;;;;;4.13;2.30;;;;;;;;;;5083610;28;20191;-70
2023/08/28 09:29:42;;;;;;;3.07;1.60;;;;;;;;;;5096088;28;20199;-70
2023/08/28 09:32:46;;;;;;;3.10;1.87;;;;;;;;;;5095965;28;20206;-72
2023/08/28 09:35:50;;;;;;;2.40;1.80;;;;;;;;;;5096204;28;20179;-73
2023/08/28 09:39:00;;;;;;;5.17;2.20;;;;;;;;;;5083642;22;20232;-72
2023/08/28 09:42:05;;;;;;;1.70;1.60;;;;;;;;;;5035849;28;20560;-72
2023/08/28 09:45:10;;;;;;;2.83;1.83;;;;;;;;;;5035758;28;20185;-72
2023/08/28 09:48:15;;;;;;;2.13;1.70;;;;;;;;;;5035825;28;20196;-72
2023/08/28 09:51:19;;;;;;;3.53;1.77;;;;;;;;;;5035516;28;20196;-73
2023/08/28 09:54:24;;;;;;;1.77;1.63;;;;;;;;;;5035339;28;20204;-73
2023/08/28 09:57:28;;;;;;;2.60;1.60;;;;;;;;;;5035699;28;20185;-73
2023/08/28 10:00:32;;;;;;;2.50;1.57;;;;;;;;;;5041735;28;20200;-72
2023/08/28 10:03:37;;;;;;;3.17;1.90;;;;;;;;;;5055390;28;20207;-73
2023/08/28 10:06:49;;;;;;;1.70;1.60;;;;;;;;;;5055116;28;20200;-73
2023/08/28 10:09:58;;;;;;;3.77;2.50;;;;;;;;;;5042799;28;20196;-73
2023/08/28 10:13:04;;;;;;;2.87;1.60;;;;;;;;;;5054849;28;20216;-73
2023/08/28 10:16:14;;;;;;;2.03;1.40;;;;;;;;;;5055031;28;20176;-73
2023/08/28 10:19:25;;;;;;;3.33;1.67;;;;;;;;;;5052640;28;20204;-73
2023/08/28 10:22:32;;;;;;;3.13;2.07;;;;;;;;;;5054758;28;20381;-73
2023/08/28 10:25:37;;;;;;;2.30;1.30;;;;;;;;;;5054762;28;20173;-73
2023/08/28 10:28:42;;;;;;;1.97;1.40;;;;;;;;;;5054936;28;20176;-73
2023/08/28 10:31:46;;;;;;;3.23;1.93;;;;;;;;;;5042299;28;20180;-73
2023/08/28 10:34:51;;;;;;;3.43;1.43;;;;;;;;;;5054735;28;20216;-73
2023/08/28 10:37:57;;;;;;;2.53;1.73;;;;;;;;;;5042015;28;20674;-73
2023/08/28 10:41:03;;;;;;;1.90;1.47;;;;;;;;;;5054459;28;20670;-73
2023/08/28 10:44:08;;;;;;;1.70;1.27;;;;;;;;;;5054399;28;20177;-73
2023/08/28 10:47:18;;;;;;;1.83;1.30;;;;;;;;;;5054347;28;20664;-73
2023/08/28 10:50:22;;;;;;;1.50;1.17;;;;;;;;;;5053271;28;20200;-73
2023/08/28 10:53:27;;;;;;;1.67;1.20;;;;;;;;;;5041846;28;20219;-74
2023/08/28 10:56:35;;;;;;;1.60;1.27;;;;;;;;;;5054127;28;20180;-74
2023/08/28 10:59:43;;;;;;;2.03;1.30;;;;;;;;;;5030468;28;20524;-73
2023/08/28 11:03:06;;;;;;;1.50;1.20;;;;;;;;;;5054118;28;20220;-74
2023/08/28 11:06:35;;;;;;;1.20;1.10;;;;;;;;;;5053978;28;20247;-74
2023/08/28 11:09:39;;;;;;;2.07;1.00;;;;;;;;;;5053973;28;20180;-73
2023/08/28 11:12:53;;;;;;;2.03;1.07;;;;;;;;;;5053807;28;20220;-74
2023/08/28 11:16:03;;;;;;;2.07;1.50;;;;;;;;;;5041879;28;20172;-74
2023/08/28 11:19:07;;;;;;;1.50;1.10;;;;;;;;;;5054107;28;20528;-74
2023/08/28 11:22:12;;;;;;;2.40;0.90;;;;;;;;;;5041725;28;20215;-73
2023/08/28 11:25:35;;;;;;;3.83;1.00;;;;;;;;;;5041551;28;20176;-74
2023/08/28 11:28:47;;;;;;;1.20;1.10;;;;;;;;;;5053920;28;20184;-74
2023/08/28 11:31:51;;;;;;;1.57;1.17;;;;;;;;;;5052706;28;20216;-73
2023/08/28 11:34:59;;;;;;;1.17;1.00;;;;;;;;;;5041228;28;20200;-74
2023/08/28 11:38:03;;;;;;;1.77;1.20;;;;;;;;;;5053271;28;20196;-74
2023/08/28 11:41:10;;;;;;;3.83;2.83;;;;;;;;;;5053373;28;20176;-74
2023/08/28 11:44:14;;;;;;;1.70;1.30;;;;;;;;;;5041156;28;20172;-74
2023/08/28 11:47:26;;;;;;;1.37;0.90;;;;;;;;;;5053409;28;20176;-73
2023/08/28 11:50:30;;;;;;;1.70;1.10;;;;;;;;;;5040937;28;20188;-73
2023/08/28 11:53:42;;;;;;;1.53;1.20;;;;;;;;;;5041120;28;20215;-73
2023/08/28 11:56:46;;;;;;;1.17;0.80;;;;;;;;;;5041252;28;20631;-73
2023/08/28 11:59:50;;;;;;;0.97;0.93;;;;;;;;;;5053198;28;20646;-74
2023/08/28 12:02:54;;;;;;;1.20;1.00;;;;;;;;;;5040264;28;20207;-73
2023/08/28 12:06:07;;;;;;;1.27;1.07;;;;;;;;;;5053097;28;20176;-73
2023/08/28 12:09:12;;;;;;;1.13;1.03;;;;;;;;;;5053017;28;20512;-73
2023/08/28 12:12:17;;;;;;;1.10;1.00;;;;;;;;;;5052973;28;20682;-73
2023/08/28 12:15:31;;;;;;;1.50;1.10;;;;;;;;;;5053183;28;20204;-73
2023/08/28 12:18:43;;;;;;;2.13;1.10;;;;;;;;;;5053016;28;20180;-73
2023/08/28 12:21:47;;;;;;;1.63;1.13;;;;;;;;;;5053083;28;20698;-73
2023/08/28 12:24:57;;;;;;;3.40;1.10;;;;;;;;;;5053156;28;20172;-73
2023/08/28 12:28:06;;;;;;;1.30;1.00;;;;;;;;;;5053077;28;20180;-73
2023/08/28 12:31:11;;;;;;;2.20;1.10;;;;;;;;;;5052675;28;20184;-73
2023/08/28 12:34:15;;;;;;;1.20;1.00;;;;;;;;;;5052810;28;20204;-73
2023/08/28 12:37:19;;;;;;;1.37;0.90;;;;;;;;;;5052667;28;20184;-73
2023/08/28 12:40:31;;;;;;;1.20;1.00;;;;;;;;;;5052619;28;20200;-73
2023/08/28 12:43:36;;;;;;;4.03;1.10;;;;;;;;;;5052466;28;20211;-73
2023/08/28 12:46:40;;;;;;;1.87;1.30;;;;;;;;;;5052537;28;20176;-73
2023/08/28 12:49:44;;;;;;;2.37;1.37;;;;;;;;;;5040371;28;20196;-72
2023/08/28 12:52:48;;;;;;;1.33;1.00;;;;;;;;;;5052334;28;20207;-73
2023/08/28 12:55:52;;;;;;;2.07;1.33;;;;;;;;;;5052406;28;20212;-73
2023/08/28 12:58:56;;;;;;;2.80;1.17;;;;;;;;;;5052681;28;20548;-73
2023/08/28 13:02:02;;;;;;;1.33;1.13;;;;;;;;;;5052357;28;20852;-73
2023/08/28 13:05:06;;;;;;;1.37;1.20;;;;;;;;;;5052681;28;20188;-73
2023/08/28 13:08:10;;;;;;;2.77;1.57;;;;;;;;;;5040199;28;20176;-74
2023/08/28 13:11:14;;;;;;;1.60;1.10;;;;;;;;;;5040127;28;20176;-73
2023/08/28 13:14:18;;;;;;;4.53;1.40;;;;;;;;;;5052585;28;20211;-73
2023/08/28 13:17:22;;;;;;;1.83;1.50;;;;;;;;;;5043808;28;20199;-72
2023/08/28 13:20:27;;;;;;;1.57;1.37;;;;;;;;;;5043679;28;20177;-72
2023/08/28 13:23:32;;;;;;;2.47;1.40;;;;;;;;;;5056091;28;20215;-73
2023/08/28 13:26:35;;;;;;;2.37;1.60;;;;;;;;;;5055869;28;20272;-72
2023/08/28 13:29:40;;;;;;;2.63;1.57;;;;;;;;;;5043485;28;20184;-72
2023/08/28 13:32:50;;;;;;;2.67;1.63;;;;;;;;;;5056137;28;20689;-72
2023/08/28 13:35:55;;;;;;;1.90;1.50;;;;;;;;;;5054867;28;20540;-72
2023/08/28 13:39:01;;;;;;;1.80;1.67;;;;;;;;;;5055728;28;20543;-72
2023/08/28 13:42:06;;;;;;;2.33;1.50;;;;;;;;;;5055906;28;20212;-72
2023/08/28 13:45:10;;;;;;;1.80;1.70;;;;;;;;;;5055527;28;20519;-73
2023/08/28 13:48:15;;;;;;;2.17;1.77;;;;;;;;;;5055864;28;20613;-73
2023/08/28 13:51:21;;;;;;;1.67;1.50;;;;;;;;;;5054779;28;20176;-73
2023/08/28 13:54:25;;;;;;;2.00;1.60;;;;;;;;;;5042910;28;20223;-73
2023/08/28 13:57:33;;;;;;;2.03;1.83;;;;;;;;;;5031639;28;20177;-72
2023/08/28 14:00:37;;;;;;;3.50;1.87;;;;;;;;;;5055252;28;20180;-72
2023/08/28 14:03:42;;;;;;;2.03;1.70;;;;;;;;;;5042936;28;20215;-72
2023/08/28 14:06:45;;;;;;;2.30;1.73;;;;;;;;;;5031610;28;20176;-73
2023/08/28 14:09:49;;;;;;;3.40;1.90;;;;;;;;;;5055368;28;20172;-72
2023/08/28 14:12:54;;;;;;;2.00;1.30;;;;;;;;;;5055021;28;20702;-72
2023/08/28 14:15:58;;;;;;;2.00;1.60;;;;;;;;;;5031219;28;20670;-72
2023/08/28 14:19:02;;;;;;;4.53;1.93;;;;;;;;;;5042719;28;20176;-72
2023/08/28 14:22:06;;;;;;;3.20;1.90;;;;;;;;;;5042552;28;20560;-72
2023/08/28 14:25:10;;;;;;;2.13;1.63;;;;;;;;;;5054629;28;20176;-73
2023/08/28 14:28:15;;;;;;;2.10;1.90;;;;;;;;;;5055116;28;20180;-72
2023/08/28 14:31:19;;;;;;;2.13;1.90;;;;;;;;;;5054716;28;20176;-72
2023/08/28 14:34:23;;;;;;;3.03;2.00;;;;;;;;;;5042492;28;20172;-73
2023/08/28 14:37:27;;;;;;;5.40;1.93;;;;;;;;;;5054986;28;20516;-73
2023/08/28 14:40:32;;;;;;;2.30;2.10;;;;;;;;;;5042163;28;20667;-72
2023/08/28 14:43:35;;;;;;;2.60;2.40;;;;;;;;;;5054348;28;20219;-73
2023/08/28 14:46:40;;;;;;;2.00;1.90;;;;;;;;;;5054407;28;20180;-73
2023/08/28 14:49:44;;;;;;;2.27;2.07;;;;;;;;;;5054301;28;20188;-72
2023/08/28 14:52:48;;;;;;;3.03;2.20;;;;;;;;;;5054469;28;20219;-72
2023/08/28 14:55:54;;;;;;;2.27;2.10;;;;;;;;;;5042138;28;20208;-72
2023/08/28 14:58:59;;;;;;;3.07;2.63;;;;;;;;;;5041884;28;20192;-72
2023/08/28 15:02:05;;;;;;;2.90;2.70;;;;;;;;;;5041995;28;20551;-72
2023/08/28 15:05:09;;;;;;;2.70;2.33;;;;;;;;;;5041980;28;20176;-72
2023/08/28 15:08:13;;;;;;;2.87;2.50;;;;;;;;;;5054220;28;20169;-72
2023/08/28 15:11:17;;;;;;;3.50;2.50;;;;;;;;;;5053203;28;20184;-72
2023/08/28 15:14:21;;;;;;;3.77;2.70;;;;;;;;;;5052847;28;20188;-72
2023/08/28 15:17:26;;;;;;;2.43;2.20;;;;;;;;;;5052097;28;20192;-72
2023/08/28 15:20:30;;;;;;;3.27;2.97;;;;;;;;;;5041710;28;20180;-72
2023/08/28 15:23:34;;;;;;;4.63;2.87;;;;;;;;;;5052826;28;20212;-72
2023/08/28 15:26:38;;;;;;;3.57;3.03;;;;;;;;;;5053912;28;20188;-72
2023/08/28 15:29:45;;;;;;;3.67;3.37;;;;;;;;;;5053432;28;20512;-71
2023/08/28 15:32:49;;;;;;;4.37;3.27;;;;;;;;;;5041119;28;20682;-72
2023/08/28 15:35:53;;;;;;;3.57;3.13;;;;;;;;;;5053458;28;20204;-71
2023/08/28 15:39:00;;;;;;;2.80;2.60;;;;;;;;;;5052880;28;20208;-72
2023/08/28 15:42:04;;;;;;;5.43;3.60;;;;;;;;;;5053221;28;20215;-71
2023/08/28 15:45:08;;;;;;;3.83;3.50;;;;;;;;;;5053495;28;20176;-71
2023/08/28 15:48:12;;;;;;;3.43;3.13;;;;;;;;;;5053313;28;20180;-72
2023/08/28 15:51:16;;;;;;;4.77;3.80;;;;;;;;;;5029818;28;20512;-72
2023/08/28 15:54:21;;;;;;;5.00;3.47;;;;;;;;;;5093364;23;20589;-74
2023/08/28 15:57:24;;;;;;;3.53;3.23;;;;;;;;;;5091813;28;20183;-74
2023/08/28 16:00:28;;;;;;;4.60;3.00;;;;;;;;;;5090941;28;20178;-75
2023/08/28 16:03:32;;;;;;;4.47;3.40;;;;;;;;;;5091733;28;20211;-74
2023/08/28 16:06:37;;;;;;;3.57;3.10;;;;;;;;;;5092328;28;20514;-73
2023/08/28 16:09:42;;;;;;;3.37;3.07;;;;;;;;;;5093835;28;20199;-74
2023/08/28 16:12:46;;;;;;;3.80;3.50;;;;;;;;;;5093023;28;20222;-74
2023/08/28 16:15:50;;;;;;;6.50;3.20;;;;;;;;;;5093710;28;20206;-75
2023/08/28 16:18:54;;;;;;;3.30;3.00;;;;;;;;;;5092809;28;20183;-75
2023/08/28 16:21:58;;;;;;;3.83;2.73;;;;;;;;;;5093736;28;20210;-75
2023/08/28 16:25:02;;;;;;;5.53;3.07;;;;;;;;;;5093712;28;20186;-74
2023/08/28 16:28:08;;;;;;;4.00;3.60;;;;;;;;;;5092935;28;20191;-75
2023/08/28 16:31:12;;;;;;;4.60;3.70;;;;;;;;;;5093234;28;20179;-74
2023/08/28 16:34:16;;;;;;;3.90;3.40;;;;;;;;;;5093404;28;20174;-74
2023/08/28 16:37:21;;;;;;;5.80;3.40;;;;;;;;;;5093579;28;20175;-74
2023/08/28 16:40:25;;;;;;;4.03;3.63;;;;;;;;;;5093451;28;20530;-75
2023/08/28 16:43:29;;;;;;;5.73;4.07;;;;;;;;;;5093341;28;20214;-74
2023/08/28 16:46:33;;;;;;;6.07;3.37;;;;;;;;;;5093516;28;20179;-73
2023/08/28 16:49:37;;;;;;;3.67;3.33;;;;;;;;;;5096012;28;20171;-73
2023/08/28 16:52:42;;;;;;;4.07;3.67;;;;;;;;;;5096725;28;20210;-74
2023/08/28 16:55:46;;;;;;;4.20;3.80;;;;;;;;;;5097285;28;20198;-74
2023/08/28 16:58:50;;;;;;;3.93;3.53;;;;;;;;;;5085802;28;20175;-74
2023/08/28 17:01:54;;;;;;;4.43;3.80;;;;;;;;;;5096512;28;20549;-73
2023/08/28 17:04:59;;;;;;;3.93;3.60;;;;;;;;;;5097327;28;20629;-73
2023/08/28 17:08:03;;;;;;;4.13;3.73;;;;;;;;;;5084556;28;20178;-73
2023/08/28 17:11:07;;;;;;;4.17;3.50;;;;;;;;;;5084709;28;20175;-73
2023/08/28 17:14:12;;;;;;;3.47;3.17;;;;;;;;;;5097062;28;20171;-73
2023/08/28 17:17:16;;;;;;;4.10;3.67;;;;;;;;;;5095713;28;20211;-73
2023/08/28 17:20:20;;;;;;;4.37;3.57;;;;;;;;;;5096849;28;20194;-73
2023/08/28 17:23:24;;;;;;;4.07;3.67;;;;;;;;;;5095743;28;20210;-73
2023/08/28 17:26:28;;;;;;;3.93;3.47;;;;;;;;;;5096710;28;20190;-73
2023/08/28 17:29:33;;;;;;;4.33;3.40;;;;;;;;;;5096037;28;20538;-73
2023/08/28 17:32:41;;;;;;;4.47;3.33;;;;;;;;;;5095786;28;20210;-73
2023/08/28 17:35:45;;;;;;;4.20;3.57;;;;;;;;;;5096573;28;20207;-73
2023/08/28 17:39:16;;;;;;;138.23;88.87;;;;;;;;;;5096391;28;20194;-75
2023/08/28 17:42:23;;;;;;;9.83;7.87;;;;;;;;;;5096454;28;20711;-74
2023/08/28 17:45:27;;;;;;;12.07;8.87;;;;;;;;;;5095446;28;20190;-74
2023/08/28 17:48:31;;;;;;;16.10;10.13;;;;;;;;;;5096479;28;20186;-74
2023/08/28 17:51:37;;;;;;;22.50;15.13;;;;;;;;;;5096187;28;20190;-74
2023/08/28 17:54:41;;;;;;;4.30;3.90;;;;;;;;;;5095385;28;20208;-74
2023/08/28 17:57:45;;;;;;;3.53;3.23;;;;;;;;;;5096412;28;20179;-74
2023/08/28 18:00:50;;;;;;;4.30;3.77;;;;;;;;;;5095411;28;20178;-74
2023/08/28 18:03:54;;;;;;;3.90;3.37;;;;;;;;;;5096094;28;20179;-74
2023/08/28 18:06:59;;;;;;;5.17;3.20;;;;;;;;;;5096353;28;20171;-76
2023/08/28 18:10:04;;;;;;;7.60;2.90;;;;;;;;;;5095392;28;20529;-74
2023/08/28 18:13:08;;;;;;;3.30;3.00;;;;;;;;;;5083745;28;20207;-74
2023/08/28 18:16:14;;;;;;;5.50;3.50;;;;;;;;;;5096136;28;20542;-74
2023/08/28 18:19:18;;;;;;;4.60;3.13;;;;;;;;;;5095205;28;20258;-74
2023/08/28 18:22:22;;;;;;;3.73;3.00;;;;;;;;;;5096020;28;20218;-74
2023/08/28 18:25:27;;;;;;;3.93;3.53;;;;;;;;;;5095198;28;20179;-74
2023/08/28 18:28:35;;;;;;;4.80;3.07;;;;;;;;;;5096096;28;20175;-74
2023/08/28 18:31:39;;;;;;;5.30;3.60;;;;;;;;;;5094954;28;20179;-74